CheckWX is a tool to help pilots better visualize weather data.  It is not intended as a substitute for an official pre-flight weather briefing.

13:33:09 UTC

ESPA METAR
Luleå Airport
Luleå, Sweden
Current

13 mins ago

ESPA 081320Z VRB01KT CAVOK M14/M15 Q0980
Observed
Dec-8 @ 13:20 UTC
Wind
  • Variable at 1 KTS
Visibility
10,000+ meters
Flight Rules
VFR
Cloud Levels
  • Clear skies
Temperature
-14°C / 7°F
Dewpoint
-15°C / 5°F
Humidity
92%
Altimeter
28.94" Hg
Pressure
979.92 hPa
Previous

43 mins ago

ESPA 081250Z VRB01KT CAVOK M12/M14 Q0980
Observed
Dec-8 @ 12:50 UTC
Wind
  • Variable at 1 KTS
Visibility
10,000+ meters
Flight Rules
VFR
Cloud Levels
  • Clear skies
Temperature
-12°C / 10°F
Dewpoint
-14°C / 7°F
Humidity
85%
Altimeter
28.94" Hg
Pressure
979.92 hPa
Previous

1 hour ago

ESPA 081220Z 29002KT CAVOK M13/M14 Q0980
Observed
Dec-8 @ 12:20 UTC
Wind
  • 290° at 2 KTS
Visibility
10,000+ meters
Flight Rules
VFR
Cloud Levels
  • Clear skies
Temperature
-13°C / 9°F
Dewpoint
-14°C / 7°F
Humidity
92%
Altimeter
28.94" Hg
Pressure
979.92 hPa